createdAt,value
2019-03-23T00:00:49.228Z,19.12
2019-03-23T00:01:49.127Z,19.12
2019-03-23T00:02:49.280Z,19.11
2019-03-23T00:03:49.144Z,19.12
2019-03-23T00:04:49.144Z,19.11
2019-03-23T00:05:49.170Z,19.11
2019-03-23T00:06:49.258Z,19.11
2019-03-23T00:07:49.189Z,19.09
2019-03-23T00:08:49.283Z,19.08
2019-03-23T00:09:49.314Z,19.08
2019-03-23T00:10:49.333Z,19.06
2019-03-23T00:11:49.324Z,19.06
2019-03-23T00:12:49.253Z,19.08
2019-03-23T00:13:49.371Z,19.05
2019-03-23T00:14:49.364Z,19.06
2019-03-23T00:15:49.438Z,19.06
2019-03-23T00:16:49.391Z,19.08
2019-03-23T00:17:49.127Z,19.08
2019-03-23T00:18:49.182Z,19.05
2019-03-23T00:19:49.622Z,19.09
2019-03-23T00:20:49.167Z,19.03
2019-03-23T00:21:49.094Z,19.08
2019-03-23T00:22:49.157Z,19.05
2019-03-23T00:23:49.134Z,19.06
2019-03-23T00:24:49.313Z,19.06
2019-03-23T00:25:49.271Z,19.05
2019-03-23T00:26:49.212Z,19.06
2019-03-23T00:27:49.214Z,19.08
2019-03-23T00:28:49.341Z,19.03
2019-03-23T00:29:49.208Z,19.02
2019-03-23T00:30:49.293Z,19.03
2019-03-23T00:31:49.245Z,19.06
2019-03-23T00:32:49.256Z,19.03
2019-03-23T00:33:49.318Z,19.02
2019-03-23T00:34:49.286Z,19.02
2019-03-23T00:35:49.151Z,19.02
2019-03-23T00:36:49.134Z,19.02
2019-03-23T00:37:49.138Z,19.03
2019-03-23T00:38:49.188Z,19.01
2019-03-23T00:39:49.137Z,19.02
2019-03-23T00:40:49.236Z,18.99
2019-03-23T00:41:49.149Z,19.01
2019-03-23T00:42:49.152Z,19.01
2019-03-23T00:43:49.330Z,19.01
2019-03-23T00:44:49.204Z,19.02
2019-03-23T00:45:49.210Z,18.99
2019-03-23T00:46:49.328Z,19.01
2019-03-23T00:47:49.256Z,19.02
2019-03-23T00:48:49.255Z,18.98
2019-03-23T00:49:49.285Z,18.99
2019-03-23T00:50:49.319Z,18.99
2019-03-23T00:51:49.297Z,18.98
2019-03-23T00:52:49.413Z,18.98
2019-03-23T00:53:49.075Z,18.98
2019-03-23T00:54:49.099Z,18.98
2019-03-23T00:55:49.054Z,18.95
2019-03-23T00:56:49.064Z,18.95
2019-03-23T00:57:49.198Z,18.97
2019-03-23T00:58:49.081Z,18.98
2019-03-23T00:59:49.101Z,18.97
2019-03-23T01:00:49.221Z,18.97
2019-03-23T01:01:49.193Z,18.98
2019-03-23T01:02:49.293Z,18.95
2019-03-23T01:03:49.247Z,18.95
2019-03-23T01:04:49.292Z,18.94
2019-03-23T01:05:49.300Z,18.94
2019-03-23T01:06:52.721Z,18.95
2019-03-23T01:07:49.371Z,18.95
2019-03-23T01:08:49.213Z,18.94
2019-03-23T01:09:49.463Z,18.95
2019-03-23T01:10:49.327Z,18.91
2019-03-23T01:11:49.262Z,18.94
2019-03-23T01:12:49.081Z,18.94
2019-03-23T01:13:49.084Z,18.92
2019-03-23T01:14:49.216Z,18.94
2019-03-23T01:15:49.212Z,18.92
2019-03-23T01:16:49.191Z,18.92
2019-03-23T01:17:49.119Z,18.91
2019-03-23T01:18:49.196Z,18.95
2019-03-23T01:19:49.314Z,18.94
2019-03-23T01:20:50.286Z,18.92
2019-03-23T01:21:49.190Z,18.91
2019-03-23T01:22:49.190Z,18.92
2019-03-23T01:23:49.247Z,18.92
2019-03-23T01:24:49.451Z,18.9
2019-03-23T01:25:49.315Z,18.9
2019-03-23T01:26:49.261Z,18.91
2019-03-23T01:27:49.383Z,18.91
2019-03-23T01:28:49.361Z,18.91
2019-03-23T01:29:49.349Z,18.9
2019-03-23T01:30:49.308Z,18.9
2019-03-23T01:31:49.396Z,18.9
2019-03-23T01:32:49.037Z,18.88
2019-03-23T01:33:49.191Z,18.9
2019-03-23T01:34:49.079Z,18.9
2019-03-23T01:35:49.072Z,18.87
2019-03-23T01:36:49.191Z,18.88
2019-03-23T01:37:49.162Z,18.84
2019-03-23T01:38:49.105Z,18.85
2019-03-23T01:39:49.146Z,18.87
2019-03-23T01:40:49.158Z,18.85
2019-03-23T01:41:49.153Z,18.85
2019-03-23T01:42:50.308Z,18.85
2019-03-23T01:43:49.249Z,18.87
2019-03-23T01:44:49.331Z,18.85
2019-03-23T01:45:49.191Z,18.85
2019-03-23T01:46:49.245Z,18.85
2019-03-23T01:47:49.445Z,18.85
2019-03-23T01:48:49.253Z,18.84
2019-03-23T01:49:49.275Z,18.85
2019-03-23T01:50:49.057Z,18.83
2019-03-23T01:51:49.048Z,18.84
2019-03-23T01:52:49.064Z,18.85
2019-03-23T01:53:49.100Z,18.84
2019-03-23T01:54:49.117Z,18.83
2019-03-23T01:55:49.121Z,18.83
2019-03-23T01:56:49.140Z,18.83
2019-03-23T01:57:49.156Z,18.81
2019-03-23T01:58:49.176Z,18.83
2019-03-23T01:59:49.191Z,18.83
2019-03-23T02:00:49.277Z,18.81
2019-03-23T02:01:49.229Z,18.8
2019-03-23T02:02:49.208Z,18.78
2019-03-23T02:03:49.327Z,18.81
2019-03-23T02:04:49.237Z,18.84
2019-03-23T02:05:49.353Z,18.81
2019-03-23T02:06:49.427Z,18.78
2019-03-23T02:07:49.403Z,18.8
2019-03-23T02:08:49.286Z,18.81
2019-03-23T02:09:49.064Z,18.8
2019-03-23T02:10:49.026Z,18.81
2019-03-23T02:11:49.234Z,18.8
2019-03-23T02:12:49.103Z,18.81
2019-03-23T02:13:49.283Z,18.8
2019-03-23T02:14:49.154Z,18.8
2019-03-23T02:15:49.121Z,18.78
2019-03-23T02:16:49.269Z,18.8
2019-03-23T02:17:49.180Z,18.77
2019-03-23T02:18:49.255Z,18.81
2019-03-23T02:19:49.158Z,18.78
2019-03-23T02:20:49.342Z,18.78
2019-03-23T02:21:49.195Z,18.78
2019-03-23T02:22:49.271Z,18.77
2019-03-23T02:23:49.204Z,18.77
2019-03-23T02:24:49.345Z,18.75
2019-03-23T02:25:49.254Z,18.77
2019-03-23T02:26:49.052Z,18.77
2019-03-23T02:27:49.130Z,18.77
2019-03-23T02:28:49.141Z,18.75
2019-03-23T02:29:49.158Z,18.77
2019-03-23T02:30:49.221Z,18.74
2019-03-23T02:31:49.271Z,18.74
2019-03-23T02:32:49.181Z,18.75
2019-03-23T02:33:49.137Z,18.74
2019-03-23T02:34:49.190Z,18.75
2019-03-23T02:35:49.183Z,18.74
2019-03-23T02:36:49.203Z,18.73
2019-03-23T02:37:49.363Z,18.73
2019-03-23T02:38:49.187Z,18.73
2019-03-23T02:39:49.195Z,18.74
2019-03-23T02:40:49.316Z,18.74
2019-03-23T02:41:49.353Z,18.73
2019-03-23T02:42:49.420Z,18.74
2019-03-23T02:43:49.409Z,18.73
2019-03-23T02:44:49.421Z,18.73
2019-03-23T02:45:49.053Z,18.7
2019-03-23T02:46:49.063Z,18.71
2019-03-23T02:47:49.045Z,18.71
2019-03-23T02:48:49.058Z,18.71
2019-03-23T02:49:49.618Z,18.73
2019-03-23T02:50:49.763Z,18.71
2019-03-23T02:51:49.264Z,18.71
2019-03-23T02:52:49.329Z,18.7
2019-03-23T02:53:49.245Z,18.71
2019-03-23T02:54:49.267Z,18.71
2019-03-23T02:55:49.168Z,18.7
2019-03-23T02:56:49.334Z,18.71
2019-03-23T02:57:49.180Z,18.71
2019-03-23T02:58:49.330Z,18.7
2019-03-23T02:59:49.328Z,18.7
2019-03-23T03:00:49.332Z,18.7
2019-03-23T03:01:49.277Z,18.7
2019-03-23T03:02:49.245Z,18.7
2019-03-23T03:03:49.117Z,18.7
2019-03-23T03:04:49.141Z,18.68
2019-03-23T03:05:49.167Z,18.7
2019-03-23T03:06:49.214Z,18.67
2019-03-23T03:07:49.124Z,18.66
2019-03-23T03:08:49.203Z,18.67
2019-03-23T03:09:49.335Z,18.64
2019-03-23T03:10:49.188Z,18.7
2019-03-23T03:11:49.451Z,18.68
2019-03-23T03:12:49.156Z,18.68
2019-03-23T03:13:49.231Z,18.67
2019-03-23T03:14:49.297Z,18.66
2019-03-23T03:15:49.297Z,18.64
2019-03-23T03:16:49.373Z,18.66
2019-03-23T03:17:49.220Z,18.67
2019-03-23T03:18:49.255Z,18.64
2019-03-23T03:19:49.234Z,18.67
2019-03-23T03:20:49.285Z,18.67
2019-03-23T03:21:49.381Z,18.67
2019-03-23T03:22:49.130Z,18.66
2019-03-23T03:23:49.093Z,18.64
2019-03-23T03:24:49.151Z,18.66
2019-03-23T03:25:49.138Z,18.64
2019-03-23T03:26:49.248Z,18.64
2019-03-23T03:27:49.061Z,18.64
2019-03-23T03:28:49.379Z,18.66
2019-03-23T03:29:49.124Z,18.63
2019-03-23T03:30:49.312Z,18.64
2019-03-23T03:31:49.160Z,18.62
2019-03-23T03:32:49.195Z,18.64
2019-03-23T03:33:49.446Z,18.64
2019-03-23T03:34:49.724Z,18.63
2019-03-23T03:35:49.231Z,18.64
2019-03-23T03:36:49.381Z,18.64
2019-03-23T03:37:57.607Z,18.63
2019-03-23T03:38:49.267Z,18.63
2019-03-23T03:39:49.121Z,18.64
2019-03-23T03:40:49.069Z,18.64
2019-03-23T03:41:49.025Z,18.62
2019-03-23T03:42:49.195Z,18.62
2019-03-23T03:43:49.237Z,18.6
2019-03-23T03:44:49.174Z,18.62
2019-03-23T03:45:49.179Z,18.62
2019-03-23T03:46:49.116Z,18.62
2019-03-23T03:47:49.240Z,18.58
2019-03-23T03:48:49.583Z,18.63
2019-03-23T03:49:49.287Z,18.6
2019-03-23T03:50:49.251Z,18.58
2019-03-23T03:51:49.297Z,18.6
2019-03-23T03:52:49.360Z,18.6
2019-03-23T03:53:49.354Z,18.6
2019-03-23T03:54:49.357Z,18.6
2019-03-23T03:55:49.542Z,18.57
2019-03-23T03:56:51.163Z,18.6
2019-03-23T03:57:49.228Z,18.58
2019-03-23T03:58:49.101Z,18.6
2019-03-23T03:59:49.034Z,18.58
2019-03-23T04:00:49.342Z,18.58
2019-03-23T04:01:49.129Z,18.58
2019-03-23T04:02:49.143Z,18.58
2019-03-23T04:03:49.211Z,18.6
2019-03-23T04:04:49.097Z,18.58
2019-03-23T04:05:49.445Z,18.57
2019-03-23T04:06:49.328Z,18.57
2019-03-23T04:07:49.233Z,18.56
2019-03-23T04:08:49.342Z,18.57
2019-03-23T04:09:49.459Z,18.56
2019-03-23T04:10:49.186Z,18.54
2019-03-23T04:11:49.266Z,18.56
2019-03-23T04:12:49.264Z,18.56
2019-03-23T04:13:49.290Z,18.54
2019-03-23T04:14:49.203Z,18.54
2019-03-23T04:15:49.079Z,18.56
2019-03-23T04:16:49.118Z,18.56
2019-03-23T04:17:49.168Z,18.56
2019-03-23T04:18:49.179Z,18.56
2019-03-23T04:19:49.205Z,18.53
2019-03-23T04:20:49.135Z,18.54
2019-03-23T04:21:49.425Z,18.53
2019-03-23T04:22:49.140Z,18.56
2019-03-23T04:23:49.279Z,18.54
2019-03-23T04:24:49.260Z,18.54
2019-03-23T04:25:49.351Z,18.51
2019-03-23T04:26:49.323Z,18.53
2019-03-23T04:27:49.450Z,18.53
2019-03-23T04:28:49.190Z,18.54
2019-03-23T04:29:49.334Z,18.53
2019-03-23T04:30:49.357Z,18.5
2019-03-23T04:31:49.212Z,18.51
2019-03-23T04:32:49.338Z,18.53
2019-03-23T04:33:49.014Z,18.53
2019-03-23T04:34:49.039Z,18.53
2019-03-23T04:35:49.042Z,18.53
2019-03-23T04:36:49.124Z,18.53
2019-03-23T04:37:49.041Z,18.5
2019-03-23T04:38:49.035Z,18.54
2019-03-23T04:39:49.623Z,18.51
2019-03-23T04:40:49.218Z,18.53
2019-03-23T04:41:49.153Z,18.53
2019-03-23T04:42:49.157Z,18.53
2019-03-23T04:43:49.263Z,18.51
2019-03-23T04:44:49.101Z,18.54
2019-03-23T04:45:49.268Z,18.56
2019-03-23T04:46:49.166Z,18.57
2019-03-23T04:47:49.142Z,18.56
2019-03-23T04:48:49.222Z,18.56
2019-03-23T04:49:49.174Z,18.58
2019-03-23T04:50:49.182Z,18.58
2019-03-23T04:51:49.144Z,18.63
2019-03-23T04:52:49.051Z,18.63
2019-03-23T04:53:49.042Z,18.64
2019-03-23T04:54:49.124Z,18.63
2019-03-23T04:55:49.120Z,18.66
2019-03-23T04:56:49.104Z,18.67
2019-03-23T04:57:49.174Z,18.7
2019-03-23T04:58:49.210Z,18.71
2019-03-23T04:59:49.196Z,18.71
2019-03-23T05:00:49.772Z,18.75
2019-03-23T05:01:49.214Z,18.73
2019-03-23T05:02:49.242Z,18.77
2019-03-23T05:03:49.302Z,18.8
2019-03-23T05:04:49.257Z,18.78
2019-03-23T05:05:49.270Z,18.8
2019-03-23T05:06:49.304Z,18.84
2019-03-23T05:07:49.194Z,18.84
2019-03-23T05:08:49.333Z,18.85
2019-03-23T05:09:48.984Z,18.85
2019-03-23T05:10:49.206Z,18.9
2019-03-23T05:11:49.006Z,18.9
2019-03-23T05:12:49.155Z,18.92
2019-03-23T05:13:49.184Z,18.92
2019-03-23T05:14:49.221Z,18.97
2019-03-23T05:15:49.045Z,18.95
2019-03-23T05:16:49.197Z,18.99
2019-03-23T05:17:49.139Z,19.01
2019-03-23T05:18:49.115Z,19.01
2019-03-23T05:19:49.143Z,19.02
2019-03-23T05:20:49.098Z,19.03
2019-03-23T05:21:49.179Z,19.03
2019-03-23T05:22:49.131Z,19.06
2019-03-23T05:23:49.326Z,19.08
2019-03-23T05:24:49.183Z,19.08
2019-03-23T05:25:49.161Z,19.09
2019-03-23T05:26:50.298Z,19.11
2019-03-23T05:27:49.379Z,19.13
2019-03-23T05:28:49.108Z,19.09
2019-03-23T05:29:49.122Z,19.13
2019-03-23T05:30:49.294Z,19.16
2019-03-23T05:31:49.142Z,19.15
2019-03-23T05:32:49.150Z,19.16
2019-03-23T05:33:49.189Z,19.18
2019-03-23T05:34:49.127Z,19.18
2019-03-23T05:35:49.177Z,19.18
2019-03-23T05:36:49.098Z,19.15
2019-03-23T05:37:49.166Z,19.16
2019-03-23T05:38:49.272Z,19.18
2019-03-23T05:39:49.228Z,19.19
2019-03-23T05:40:49.211Z,19.2
2019-03-23T05:41:49.252Z,19.19
2019-03-23T05:42:49.283Z,19.19
2019-03-23T05:43:49.854Z,19.25
2019-03-23T05:44:49.276Z,19.22
2019-03-23T05:45:49.099Z,19.22
2019-03-23T05:46:49.092Z,19.23
2019-03-23T05:47:49.003Z,19.25
2019-03-23T05:48:49.005Z,19.22
2019-03-23T05:49:49.177Z,19.25
2019-03-23T05:50:49.148Z,19.22
2019-03-23T05:51:49.061Z,19.23
2019-03-23T05:52:49.109Z,19.25
2019-03-23T05:53:49.181Z,19.25
2019-03-23T05:54:49.215Z,19.23
2019-03-23T05:55:49.148Z,19.23
2019-03-23T05:56:49.238Z,19.25
2019-03-23T05:57:49.222Z,19.23
2019-03-23T05:58:49.155Z,19.25
2019-03-23T05:59:49.225Z,19.25
2019-03-23T06:00:49.311Z,19.26
2019-03-23T06:01:49.253Z,19.23
2019-03-23T06:02:49.341Z,19.23
2019-03-23T06:03:48.968Z,19.22
2019-03-23T06:04:48.970Z,19.22
2019-03-23T06:05:49.010Z,19.22
2019-03-23T06:06:49.908Z,19.23
2019-03-23T06:07:49.131Z,19.23
2019-03-23T06:08:55.771Z,19.2
2019-03-23T06:09:49.192Z,19.2
2019-03-23T06:10:49.154Z,19.22
2019-03-23T06:11:49.396Z,19.23
2019-03-23T06:12:49.133Z,19.22
2019-03-23T06:13:49.308Z,19.22
2019-03-23T06:14:49.301Z,19.22
2019-03-23T06:15:49.259Z,19.25
2019-03-23T06:16:49.675Z,19.25
2019-03-23T06:17:49.239Z,19.22
2019-03-23T06:18:49.420Z,19.23
2019-03-23T06:19:49.310Z,19.23
2019-03-23T06:20:49.049Z,19.2
2019-03-23T06:21:49.108Z,19.25
2019-03-23T06:22:49.340Z,19.23
2019-03-23T06:23:49.237Z,19.2
2019-03-23T06:24:49.063Z,19.22
2019-03-23T06:25:49.017Z,19.19
2019-03-23T06:26:49.064Z,19.23
2019-03-23T06:27:49.721Z,19.23
2019-03-23T06:28:49.068Z,19.22
2019-03-23T06:29:49.163Z,19.2
2019-03-23T06:30:49.231Z,19.2
2019-03-23T06:31:49.243Z,19.23
2019-03-23T06:32:49.173Z,19.19
2019-03-23T06:33:49.241Z,19.19
2019-03-23T06:34:49.231Z,19.2
2019-03-23T06:35:49.175Z,19.19
2019-03-23T06:36:49.298Z,19.19
2019-03-23T06:37:49.568Z,19.19
2019-03-23T06:38:48.993Z,19.18
2019-03-23T06:39:49.135Z,19.18
2019-03-23T06:40:48.997Z,19.15
2019-03-23T06:41:48.982Z,19.16
2019-03-23T06:43:00.277Z,19.16
2019-03-23T06:43:49.324Z,19.15
2019-03-23T06:44:49.114Z,19.16
2019-03-23T06:45:49.147Z,19.15
2019-03-23T06:46:49.153Z,19.15
2019-03-23T06:47:49.126Z,19.13
2019-03-23T06:48:49.109Z,19.13
2019-03-23T06:49:49.878Z,19.15
2019-03-23T06:50:49.221Z,19.13
2019-03-23T06:51:49.213Z,19.13
2019-03-23T06:52:49.155Z,19.13
2019-03-23T06:53:49.240Z,19.11
2019-03-23T06:54:49.494Z,19.12
2019-03-23T06:55:49.489Z,19.12
2019-03-23T06:56:48.868Z,19.12
2019-03-23T06:57:49.037Z,19.09
2019-03-23T06:58:48.915Z,19.09
2019-03-23T06:59:49.145Z,19.09
2019-03-23T07:00:49.216Z,19.11
2019-03-23T07:01:49.310Z,19.09
2019-03-23T07:02:49.082Z,19.09
2019-03-23T07:03:49.096Z,19.11
2019-03-23T07:04:49.205Z,19.09
2019-03-23T07:05:49.205Z,19.11
2019-03-23T07:06:49.206Z,19.08
2019-03-23T07:07:49.233Z,19.06
2019-03-23T07:08:49.237Z,19.05
2019-03-23T07:09:49.289Z,19.08
2019-03-23T07:10:49.578Z,19.06
2019-03-23T07:11:49.275Z,19.08
2019-03-23T07:12:49.250Z,19.08
2019-03-23T07:13:49.246Z,19.03
2019-03-23T07:14:48.953Z,19.03
2019-03-23T07:15:48.982Z,19.06
2019-03-23T07:16:48.992Z,19.06
2019-03-23T07:17:48.994Z,19.06
2019-03-23T07:18:49.104Z,19.03
2019-03-23T07:19:49.127Z,19.06
2019-03-23T07:20:49.281Z,19.05
2019-03-23T07:21:49.198Z,19.05
2019-03-23T07:22:49.155Z,19.05
2019-03-23T07:23:49.171Z,19.02
2019-03-23T07:24:49.176Z,19.03
2019-03-23T07:25:49.129Z,19.02
2019-03-23T07:26:49.407Z,19.01
2019-03-23T07:27:49.352Z,19.02
2019-03-23T07:28:49.232Z,19.02
2019-03-23T07:29:49.151Z,19.01
2019-03-23T07:30:49.235Z,18.98
2019-03-23T07:31:49.265Z,19.01
2019-03-23T07:32:50.078Z,19.02
2019-03-23T07:33:49.091Z,19.02
2019-03-23T07:34:48.994Z,19.01
2019-03-23T07:35:49.115Z,19.02
2019-03-23T07:36:49.092Z,19.01
2019-03-23T07:37:49.156Z,19.01
2019-03-23T07:38:49.158Z,19.02
2019-03-23T07:39:49.257Z,19.02
2019-03-23T07:40:49.141Z,19.02
2019-03-23T07:41:49.444Z,19.01
2019-03-23T07:42:49.043Z,19.01
2019-03-23T07:43:49.080Z,18.99
2019-03-23T07:44:49.185Z,18.99
2019-03-23T07:45:49.093Z,18.99
2019-03-23T07:46:49.279Z,19.02
2019-03-23T07:47:49.236Z,19.01
2019-03-23T07:48:49.275Z,19.01
2019-03-23T07:49:49.044Z,19.01
2019-03-23T07:50:49.026Z,19.01
2019-03-23T07:51:49.143Z,19.02
2019-03-23T07:52:49.025Z,18.99
2019-03-23T07:53:48.985Z,19.02
2019-03-23T07:54:49.057Z,19.01
2019-03-23T07:55:49.044Z,19.03
2019-03-23T07:56:49.039Z,19.02
2019-03-23T07:57:49.030Z,19.01
2019-03-23T07:58:49.066Z,19.01
2019-03-23T07:59:49.146Z,19.02
2019-03-23T08:00:49.338Z,19.01
2019-03-23T08:01:49.267Z,18.95
2019-03-23T08:02:49.255Z,18.92
2019-03-23T08:03:49.108Z,18.85
2019-03-23T08:04:49.113Z,18.84
2019-03-23T08:05:49.243Z,18.83
2019-03-23T08:06:48.986Z,18.81
2019-03-23T08:07:49.003Z,18.84
2019-03-23T08:08:48.999Z,18.83
2019-03-23T08:09:48.945Z,18.84
2019-03-23T08:10:49.220Z,18.88
2019-03-23T08:11:49.172Z,18.9
2019-03-23T08:12:48.969Z,18.9
2019-03-23T08:13:48.989Z,18.88
2019-03-23T08:14:49.165Z,18.91
2019-03-23T08:15:49.101Z,18.91
2019-03-23T08:16:48.931Z,18.92
2019-03-23T08:17:49.032Z,18.97
2019-03-23T08:18:49.029Z,18.94
2019-03-23T08:19:49.178Z,18.97
2019-03-23T08:20:49.108Z,18.97
2019-03-23T08:21:49.239Z,18.97
2019-03-23T08:22:49.178Z,18.98
2019-03-23T08:23:49.271Z,18.98
2019-03-23T08:24:48.886Z,18.99
2019-03-23T08:25:48.932Z,18.98
2019-03-23T08:26:49.005Z,18.98
2019-03-23T08:27:49.026Z,18.99
2019-03-23T08:28:49.270Z,18.98
2019-03-23T08:29:48.999Z,18.99
2019-03-23T08:30:49.063Z,19.01
2019-03-23T08:31:49.009Z,19.02
2019-03-23T08:32:49.106Z,19.02
2019-03-23T08:33:49.011Z,19.05
2019-03-23T08:34:49.013Z,19.03
2019-03-23T08:35:49.070Z,19.05
2019-03-23T08:36:49.072Z,19.05
2019-03-23T08:37:49.386Z,19.08
2019-03-23T08:38:49.081Z,19.11
2019-03-23T08:39:49.297Z,19.08
2019-03-23T08:40:49.197Z,19.08
2019-03-23T08:41:49.319Z,19.09
2019-03-23T08:42:49.105Z,19.11
2019-03-23T08:43:48.902Z,19.11
2019-03-23T08:44:48.873Z,19.12
2019-03-23T08:45:48.895Z,19.12
2019-03-23T08:46:48.975Z,19.11
2019-03-23T08:47:48.884Z,19.11
2019-03-23T08:48:48.933Z,19.11
2019-03-23T08:49:49.009Z,19.11
2019-03-23T08:50:48.995Z,19.11
2019-03-23T08:51:49.137Z,19.12
2019-03-23T08:52:49.028Z,19.12
2019-03-23T08:53:49.009Z,19.11
2019-03-23T08:54:49.122Z,19.11
2019-03-23T08:55:49.088Z,19.12
2019-03-23T08:56:49.126Z,19.13
2019-03-23T08:57:49.044Z,19.11
2019-03-23T08:58:50.199Z,19.09
2019-03-23T08:59:49.250Z,19.12
2019-03-23T09:00:49.241Z,19.12
2019-03-23T09:01:48.883Z,19.09
2019-03-23T09:02:48.946Z,19.12
2019-03-23T09:03:53.057Z,19.15
2019-03-23T09:04:49.022Z,19.16
2019-03-23T09:05:48.967Z,19.15
2019-03-23T09:06:49.089Z,19.2
2019-03-23T09:07:49.076Z,19.2
2019-03-23T09:08:49.145Z,19.25
2019-03-23T09:09:59.740Z,19.25
2019-03-23T09:10:49.078Z,19.26
2019-03-23T09:11:49.148Z,19.27
2019-03-23T09:12:49.190Z,19.3
2019-03-23T09:13:49.191Z,19.32
2019-03-23T09:14:49.090Z,19.36
2019-03-23T09:15:49.192Z,19.37
2019-03-23T09:16:49.173Z,19.39
2019-03-23T09:17:49.174Z,19.43
2019-03-23T09:18:49.136Z,19.43
2019-03-23T09:19:50.029Z,19.45
2019-03-23T09:20:50.056Z,19.49
2019-03-23T09:21:49.028Z,19.49
2019-03-23T09:22:48.947Z,19.5
2019-03-23T09:23:48.905Z,19.53
2019-03-23T09:24:48.979Z,19.52
2019-03-23T09:25:48.983Z,19.58
2019-03-23T09:26:49.433Z,19.6
2019-03-23T09:27:49.108Z,19.57
2019-03-23T09:28:49.058Z,19.6
2019-03-23T09:29:48.997Z,19.64
2019-03-23T09:30:49.017Z,19.64
2019-03-23T09:31:49.066Z,19.64
2019-03-23T09:32:49.234Z,19.67
2019-03-23T09:33:49.101Z,19.68
2019-03-23T09:34:49.067Z,19.68
2019-03-23T09:35:49.060Z,19.7
2019-03-23T09:36:49.117Z,19.68
2019-03-23T09:37:49.001Z,19.7
2019-03-23T09:38:48.901Z,19.71
2019-03-23T09:39:48.896Z,19.73
2019-03-23T09:40:48.997Z,19.74
2019-03-23T09:41:49.044Z,19.74
2019-03-23T09:42:49.126Z,19.74
2019-03-23T09:43:49.370Z,19.74
2019-03-23T09:44:49.070Z,19.74
2019-03-23T09:45:49.019Z,19.75
2019-03-23T09:46:49.088Z,19.77
2019-03-23T09:47:49.045Z,19.78
2019-03-23T09:48:49.029Z,19.8
2019-03-23T09:49:49.299Z,19.8
2019-03-23T09:50:49.026Z,19.8
2019-03-23T09:51:49.074Z,19.81
2019-03-23T09:52:49.085Z,19.82
2019-03-23T09:53:49.100Z,19.81
2019-03-23T09:54:48.950Z,19.82
2019-03-23T09:55:49.100Z,19.84
2019-03-23T09:56:48.965Z,19.85
2019-03-23T09:57:48.957Z,19.85
2019-03-23T09:58:49.177Z,19.85
2019-03-23T09:59:49.031Z,19.84
2019-03-23T10:00:48.988Z,19.85
2019-03-23T10:01:49.147Z,19.82
2019-03-23T10:02:48.987Z,19.84
2019-03-23T10:03:49.048Z,19.81
2019-03-23T10:04:48.881Z,19.84
2019-03-23T10:05:49.182Z,19.84
2019-03-23T10:06:49.069Z,19.82
2019-03-23T10:07:49.143Z,19.85
2019-03-23T10:08:49.076Z,19.82
2019-03-23T10:09:49.105Z,19.82
2019-03-23T10:10:48.928Z,19.84
2019-03-23T10:11:48.895Z,19.81
2019-03-23T10:12:49.050Z,19.84
2019-03-23T10:13:49.057Z,19.82
2019-03-23T10:14:48.946Z,19.82
2019-03-23T10:15:48.967Z,19.82
2019-03-23T10:16:49.017Z,19.85
2019-03-23T10:17:49.098Z,19.84
2019-03-23T10:18:48.969Z,19.84
2019-03-23T10:19:49.074Z,19.85
2019-03-23T10:20:49.302Z,19.82
2019-03-23T10:21:50.975Z,19.85
2019-03-23T10:22:49.086Z,19.84
2019-03-23T10:23:49.372Z,19.84
2019-03-23T10:24:49.131Z,19.84
2019-03-23T10:25:49.112Z,19.84
2019-03-23T10:26:48.901Z,19.82
2019-03-23T10:27:48.864Z,19.85
2019-03-23T10:28:49.074Z,19.84
2019-03-23T10:29:48.968Z,19.84
2019-03-23T10:30:48.922Z,19.81
2019-03-23T10:31:49.134Z,19.81
2019-03-23T10:32:48.933Z,19.84
2019-03-23T10:33:49.057Z,19.82
2019-03-23T10:34:49.101Z,19.84
2019-03-23T10:35:48.986Z,19.84
2019-03-23T10:36:49.111Z,19.82
2019-03-23T10:37:49.055Z,19.82
2019-03-23T10:38:49.097Z,19.82
2019-03-23T10:39:49.062Z,19.82
2019-03-23T10:40:48.869Z,19.81
2019-03-23T10:41:49.170Z,19.81
2019-03-23T10:42:48.976Z,19.85
2019-03-23T10:43:48.909Z,19.82
2019-03-23T10:44:49.070Z,19.82
2019-03-23T10:45:48.945Z,19.81
2019-03-23T10:46:48.972Z,19.84
2019-03-23T10:47:50.432Z,19.84
2019-03-23T10:48:48.904Z,19.81
2019-03-23T10:49:48.973Z,19.82
2019-03-23T10:50:49.098Z,19.85
2019-03-23T10:51:49.121Z,19.82
2019-03-23T10:52:49.044Z,19.84
2019-03-23T10:53:49.183Z,19.84
2019-03-23T10:54:49.100Z,19.81
2019-03-23T10:55:49.111Z,19.85
2019-03-23T10:56:48.863Z,19.84
2019-03-23T10:57:49.253Z,19.84
2019-03-23T10:58:48.866Z,19.82
2019-03-23T10:59:48.862Z,19.84
2019-03-23T11:00:49.143Z,19.85
2019-03-23T11:01:48.884Z,19.86
2019-03-23T11:02:48.900Z,19.88
2019-03-23T11:03:48.944Z,19.88
2019-03-23T11:04:49.242Z,19.88
2019-03-23T11:05:48.977Z,19.91
2019-03-23T11:06:48.890Z,19.89
2019-03-23T11:07:48.967Z,19.92
2019-03-23T11:08:48.990Z,19.93
2019-03-23T11:09:49.028Z,19.93
2019-03-23T11:10:49.100Z,19.93
2019-03-23T11:11:49.098Z,19.93
2019-03-23T11:12:49.777Z,19.96
2019-03-23T11:13:49.075Z,19.95
2019-03-23T11:14:48.872Z,19.96
2019-03-23T11:15:48.937Z,19.98
2019-03-23T11:16:48.965Z,20.01
2019-03-23T11:17:49.190Z,20.01
2019-03-23T11:18:48.981Z,20.02
2019-03-23T11:19:49.051Z,20.01
2019-03-23T11:20:48.836Z,20.01
2019-03-23T11:21:49.112Z,20.02
2019-03-23T11:22:49.024Z,20.02
2019-03-23T11:23:49.198Z,20.01
2019-03-23T11:24:49.127Z,20.05
2019-03-23T11:25:49.338Z,20.04
2019-03-23T11:26:49.297Z,20.05
2019-03-23T11:27:49.059Z,20.05
2019-03-23T11:28:49.099Z,20.05
2019-03-23T11:29:49.127Z,20.07
2019-03-23T11:30:48.838Z,20.07
2019-03-23T11:31:48.965Z,20.07
2019-03-23T11:32:48.883Z,20.08
2019-03-23T11:33:48.974Z,20.07
2019-03-23T11:34:48.919Z,20.08
2019-03-23T11:35:58.428Z,20.09
2019-03-23T11:36:49.140Z,20.11
2019-03-23T11:37:51.157Z,20.12
2019-03-23T11:38:48.970Z,20.09
2019-03-23T11:39:49.130Z,20.13
2019-03-23T11:40:55.577Z,20.13
2019-03-23T11:41:48.972Z,20.13
2019-03-23T11:42:50.817Z,20.13
2019-03-23T11:43:49.030Z,20.15
2019-03-23T11:44:50.186Z,20.16
2019-03-23T11:45:49.562Z,20.13
2019-03-23T11:46:49.247Z,20.13
2019-03-23T11:47:49.148Z,20.15
2019-03-23T11:48:48.952Z,20.13
2019-03-23T11:49:48.893Z,20.13
2019-03-23T11:50:48.990Z,20.16
2019-03-23T11:51:49.024Z,20.16
2019-03-23T11:52:48.938Z,20.12
2019-03-23T11:53:48.955Z,20.15
2019-03-23T11:54:48.987Z,20.13
2019-03-23T11:55:48.992Z,20.16
2019-03-23T11:56:49.253Z,20.13
2019-03-23T11:57:49.120Z,20.15
2019-03-23T11:58:48.889Z,20.15
2019-03-23T11:59:49.127Z,20.13
2019-03-23T12:00:49.192Z,20.16
2019-03-23T12:01:52.466Z,20.12
2019-03-23T12:02:48.907Z,20.15
2019-03-23T12:03:48.854Z,20.13
2019-03-23T12:04:48.954Z,20.13
2019-03-23T12:05:49.044Z,20.12
2019-03-23T12:06:48.854Z,20.11
2019-03-23T12:07:48.958Z,20.12
2019-03-23T12:08:49.481Z,20.15
2019-03-23T12:09:48.962Z,20.12
2019-03-23T12:10:48.974Z,20.13
2019-03-23T12:11:49.117Z,20.12
2019-03-23T12:12:49.129Z,20.12
2019-03-23T12:13:49.157Z,20.11
2019-03-23T12:14:49.040Z,20.12
2019-03-23T12:15:49.132Z,20.08
2019-03-23T12:16:48.988Z,20.09
2019-03-23T12:17:48.943Z,20.09
2019-03-23T12:18:48.964Z,20.09
2019-03-23T12:19:48.968Z,20.09
2019-03-23T12:20:49.071Z,20.08
2019-03-23T12:21:51.110Z,20.08
2019-03-23T12:22:48.813Z,20.08
2019-03-23T12:23:48.916Z,20.07
2019-03-23T12:24:49.023Z,20.08
2019-03-23T12:25:48.966Z,20.07
2019-03-23T12:26:48.986Z,20.08
2019-03-23T12:27:49.040Z,20.08
2019-03-23T12:28:49.142Z,20.05
2019-03-23T12:29:49.105Z,20.05
2019-03-23T12:30:48.850Z,20.05
2019-03-23T12:31:48.944Z,20.05
2019-03-23T12:32:49.250Z,20.07
2019-03-23T12:33:48.910Z,20.04
2019-03-23T12:34:48.825Z,20.05
2019-03-23T12:35:48.849Z,20.04
2019-03-23T12:36:48.875Z,20.05
2019-03-23T12:37:48.827Z,20.05
2019-03-23T12:38:48.889Z,20.04
2019-03-23T12:39:48.893Z,20.04
2019-03-23T12:40:49.031Z,20.05
2019-03-23T12:41:49.077Z,20.04
2019-03-23T12:42:49.024Z,20.05
2019-03-23T12:43:48.997Z,20.05
2019-03-23T12:44:48.988Z,20.02
2019-03-23T12:45:48.979Z,20.04
2019-03-23T12:46:49.198Z,20.04
2019-03-23T12:47:49.077Z,20.04
2019-03-23T12:48:49.103Z,20.02
2019-03-23T12:49:49.053Z,20.05
2019-03-23T12:50:48.936Z,20.04
2019-03-23T12:51:53.261Z,20.04
2019-03-23T12:52:49.308Z,20.05
2019-03-23T12:53:48.903Z,20.02
2019-03-23T12:54:49.006Z,20.02